Time;durP1;ratioP1;P1;durP2;ratioP2;P2;SDS_P1;SDS_P2;PMS_P1;PMS_P2;Temp;Humidity;BMP_temperature;BMP_pressure;BME280_temperature;BME280_humidity;BME280_pressure;Samples;Min_cycle;Max_cycle;Signal;HPM_P1;HPM_P2
2023/08/24 00:01:09;;;;;;;5.60;3.80;;;;;;;;;;5042060;28;20202;-70
2023/08/24 00:03:35;;;;;;;5.73;3.13;;;;;;;;;;5032171;28;20745;-70
2023/08/24 00:06:01;;;;;;;5.97;3.60;;;;;;;;;;5049396;28;20218;-69
2023/08/24 00:08:27;;;;;;;5.23;3.50;;;;;;;;;;5049920;28;20203;-70
2023/08/24 00:10:54;;;;;;;5.17;3.53;;;;;;;;;;5050198;28;20197;-70
2023/08/24 00:13:20;;;;;;;6.50;3.70;;;;;;;;;;5049883;28;20222;-70
2023/08/24 00:15:47;;;;;;;5.70;3.60;;;;;;;;;;5047822;28;20202;-70
2023/08/24 00:18:13;;;;;;;5.50;3.80;;;;;;;;;;5048316;28;20198;-70
2023/08/24 00:20:40;;;;;;;4.70;3.33;;;;;;;;;;5049571;28;20627;-70
2023/08/24 00:23:06;;;;;;;6.63;3.17;;;;;;;;;;5049616;28;20245;-71
2023/08/24 00:25:32;;;;;;;4.87;2.97;;;;;;;;;;5030972;28;20203;-71
2023/08/24 00:27:59;;;;;;;5.47;3.10;;;;;;;;;;5048167;28;20312;-71
2023/08/24 00:30:25;;;;;;;5.43;2.90;;;;;;;;;;5042396;28;20317;-71
2023/08/24 00:32:51;;;;;;;4.07;2.70;;;;;;;;;;5049332;28;20226;-71
2023/08/24 00:35:18;;;;;;;6.13;3.13;;;;;;;;;;5049843;28;20209;-71
2023/08/24 00:37:44;;;;;;;4.80;3.03;;;;;;;;;;5045809;28;20287;-71
2023/08/24 00:40:11;;;;;;;4.43;3.10;;;;;;;;;;5049717;28;20205;-71
2023/08/24 00:42:41;;;;;;;5.43;2.97;;;;;;;;;;5047812;28;20207;-71
2023/08/24 00:45:09;;;;;;;3.30;2.90;;;;;;;;;;5031661;28;20674;-71
2023/08/24 00:47:36;;;;;;;5.53;3.30;;;;;;;;;;5041241;28;20775;-70
2023/08/24 00:50:03;;;;;;;5.87;3.33;;;;;;;;;;5043256;28;20250;-71
2023/08/24 00:52:31;;;;;;;6.90;2.77;;;;;;;;;;5028125;28;20198;-71
2023/08/24 00:54:58;;;;;;;5.33;3.20;;;;;;;;;;5049313;28;20258;-70
2023/08/24 00:57:26;;;;;;;5.30;2.77;;;;;;;;;;5032064;28;20591;-71
2023/08/24 00:59:52;;;;;;;4.07;3.00;;;;;;;;;;5033967;28;20198;-71
2023/08/24 01:02:18;;;;;;;4.13;3.23;;;;;;;;;;5053483;28;20241;-71
2023/08/24 01:04:46;;;;;;;5.67;3.53;;;;;;;;;;5053220;28;20698;-71
2023/08/24 01:07:13;;;;;;;8.83;3.40;;;;;;;;;;5046147;28;20256;-71
2023/08/24 01:09:40;;;;;;;6.00;3.30;;;;;;;;;;5050858;28;20204;-71
2023/08/24 01:12:06;;;;;;;4.47;3.27;;;;;;;;;;5053355;28;20199;-71
2023/08/24 01:14:45;;;;;;;5.20;3.57;;;;;;;;;;5052992;28;20320;-71
2023/08/24 01:17:14;;;;;;;5.90;3.57;;;;;;;;;;5053704;28;20651;-71
2023/08/24 01:19:44;;;;;;;4.47;3.53;;;;;;;;;;5048415;28;20198;-71
2023/08/24 01:22:17;;;;;;;5.43;2.80;;;;;;;;;;5028896;28;20222;-70
2023/08/24 01:24:51;;;;;;;4.43;3.50;;;;;;;;;;5052970;28;20619;-71
2023/08/24 01:27:19;;;;;;;4.17;3.00;;;;;;;;;;5053210;28;20314;-71
2023/08/24 01:29:45;;;;;;;6.33;3.43;;;;;;;;;;5047297;28;20214;-71
2023/08/24 01:32:11;;;;;;;4.60;3.23;;;;;;;;;;5052825;28;20203;-71
2023/08/24 01:34:41;;;;;;;5.30;3.00;;;;;;;;;;5052460;28;20691;-71
2023/08/24 01:37:07;;;;;;;5.07;3.30;;;;;;;;;;5045382;28;20659;-71
2023/08/24 01:39:46;;;;;;;5.77;3.27;;;;;;;;;;5046429;28;20280;-71
2023/08/24 01:42:18;;;;;;;6.60;3.17;;;;;;;;;;5047101;28;20217;-71
2023/08/24 01:44:47;;;;;;;5.93;3.30;;;;;;;;;;5044735;28;20245;-71
2023/08/24 01:47:13;;;;;;;5.03;3.10;;;;;;;;;;5040424;28;20698;-70
2023/08/24 01:49:40;;;;;;;6.53;3.40;;;;;;;;;;5047116;28;20195;-71
2023/08/24 01:52:08;;;;;;;4.83;3.33;;;;;;;;;;5072437;28;20218;-70
2023/08/24 01:54:34;;;;;;;4.90;3.80;;;;;;;;;;5049363;28;20309;-71
2023/08/24 01:57:01;;;;;;;5.40;3.07;;;;;;;;;;5048498;28;20230;-71
2023/08/24 01:59:27;;;;;;;4.90;3.20;;;;;;;;;;5046355;28;20199;-71
2023/08/24 02:01:54;;;;;;;9.07;3.60;;;;;;;;;;5071716;28;20201;-70
2023/08/24 02:04:20;;;;;;;4.73;3.33;;;;;;;;;;5057306;28;20234;-70
2023/08/24 02:06:46;;;;;;;8.60;3.10;;;;;;;;;;5052301;28;20306;-70
2023/08/24 02:09:12;;;;;;;5.63;3.50;;;;;;;;;;5030122;28;20199;-70
2023/08/24 02:11:39;;;;;;;5.33;3.10;;;;;;;;;;5057731;28;20202;-71
2023/08/24 02:14:05;;;;;;;4.90;3.33;;;;;;;;;;5058959;28;20608;-71
2023/08/24 02:16:31;;;;;;;5.20;2.87;;;;;;;;;;5052331;28;20293;-71
2023/08/24 02:18:58;;;;;;;5.07;3.30;;;;;;;;;;5057136;28;20206;-71
2023/08/24 02:21:24;;;;;;;3.93;2.90;;;;;;;;;;5057657;28;20214;-71
2023/08/24 02:23:50;;;;;;;16.50;3.37;;;;;;;;;;5069262;28;20232;-71
2023/08/24 02:26:16;;;;;;;4.50;2.93;;;;;;;;;;5034290;28;20206;-71
2023/08/24 02:28:43;;;;;;;6.13;2.90;;;;;;;;;;5049528;28;20383;-71
2023/08/24 02:31:09;;;;;;;6.10;3.33;;;;;;;;;;5055637;28;20198;-71
2023/08/24 02:33:36;;;;;;;4.23;3.30;;;;;;;;;;5071398;28;20218;-71
2023/08/24 02:36:02;;;;;;;5.60;3.30;;;;;;;;;;5052095;28;20290;-71
2023/08/24 02:38:29;;;;;;;6.23;3.00;;;;;;;;;;5052169;28;20628;-71
2023/08/24 02:41:05;;;;;;;6.80;3.20;;;;;;;;;;5042336;28;20491;-71
2023/08/24 02:43:32;;;;;;;4.40;2.93;;;;;;;;;;5067464;28;20218;-70
2023/08/24 02:45:59;;;;;;;4.30;3.40;;;;;;;;;;5059823;28;20288;-71
2023/08/24 02:48:26;;;;;;;5.13;3.10;;;;;;;;;;5051625;28;20718;-71
2023/08/24 02:50:53;;;;;;;5.13;3.40;;;;;;;;;;5044442;28;20209;-71
2023/08/24 02:53:19;;;;;;;4.10;2.90;;;;;;;;;;5046541;28;20222;-71
2023/08/24 02:55:45;;;;;;;6.20;3.60;;;;;;;;;;5043302;28;20202;-71
2023/08/24 02:58:11;;;;;;;7.03;3.70;;;;;;;;;;5051643;28;20203;-71
2023/08/24 03:00:38;;;;;;;4.67;3.47;;;;;;;;;;5048991;28;20204;-71
2023/08/24 03:03:05;;;;;;;9.47;3.60;;;;;;;;;;5054110;28;20395;-71
2023/08/24 03:05:32;;;;;;;6.00;3.30;;;;;;;;;;5063310;28;20213;-71
2023/08/24 03:07:58;;;;;;;3.17;2.70;;;;;;;;;;5050831;28;20222;-71
2023/08/24 03:10:25;;;;;;;7.90;3.47;;;;;;;;;;5043631;28;20294;-71
2023/08/24 03:12:51;;;;;;;5.97;3.33;;;;;;;;;;5049959;28;20199;-71
2023/08/24 03:15:17;;;;;;;4.97;3.00;;;;;;;;;;5052931;28;20647;-71
2023/08/24 03:17:43;;;;;;;6.10;3.17;;;;;;;;;;5035381;28;20210;-70
2023/08/24 03:20:10;;;;;;;5.13;3.40;;;;;;;;;;5051220;28;20692;-71
2023/08/24 03:22:37;;;;;;;3.43;3.13;;;;;;;;;;5043197;28;20200;-71
2023/08/24 03:25:04;;;;;;;4.27;3.50;;;;;;;;;;5070390;28;20198;-71
2023/08/24 03:27:30;;;;;;;7.10;3.20;;;;;;;;;;5055195;28;20222;-70
2023/08/24 03:29:57;;;;;;;3.63;3.33;;;;;;;;;;5050838;28;20206;-71
2023/08/24 03:32:23;;;;;;;5.47;3.03;;;;;;;;;;5031850;28;20282;-71
2023/08/24 03:34:50;;;;;;;6.63;3.20;;;;;;;;;;5058590;28;20241;-71
2023/08/24 03:37:16;;;;;;;5.50;3.13;;;;;;;;;;5064969;28;20198;-71
2023/08/24 03:39:42;;;;;;;5.20;3.17;;;;;;;;;;5050323;28;20217;-71
2023/08/24 03:42:09;;;;;;;5.83;3.50;;;;;;;;;;5050551;28;20206;-70
2023/08/24 03:44:35;;;;;;;10.00;4.05;;;;;;;;;;5054278;28;20650;-70
2023/08/24 03:47:02;;;;;;;10.43;4.50;;;;;;;;;;5067042;28;20272;-71
2023/08/24 03:49:29;;;;;;;8.17;3.60;;;;;;;;;;5050552;28;20340;-71
2023/08/24 03:51:55;;;;;;;5.40;3.60;;;;;;;;;;5050132;28;20276;-71
2023/08/24 03:54:22;;;;;;;7.70;4.10;;;;;;;;;;5046810;28;20225;-71
2023/08/24 03:56:48;;;;;;;5.63;3.70;;;;;;;;;;5068250;28;20233;-70
2023/08/24 03:59:14;;;;;;;8.03;4.07;;;;;;;;;;5039160;28;20281;-71
2023/08/24 04:01:41;;;;;;;5.53;3.80;;;;;;;;;;5050070;28;20198;-71
2023/08/24 04:04:07;;;;;;;9.17;3.97;;;;;;;;;;5045033;28;20215;-71
2023/08/24 04:06:33;;;;;;;14.33;4.87;;;;;;;;;;5065498;28;20206;-70
2023/08/24 04:08:59;;;;;;;7.72;3.75;;;;;;;;;;5058366;28;20219;-70
2023/08/24 04:11:26;;;;;;;9.48;4.32;;;;;;;;;;5032156;28;20198;-71
2023/08/24 04:13:52;;;;;;;8.57;3.75;;;;;;;;;;5047458;28;20219;-70
2023/08/24 04:16:19;;;;;;;8.73;3.77;;;;;;;;;;5053439;28;20285;-70
2023/08/24 04:18:45;;;;;;;8.77;3.90;;;;;;;;;;5060297;28;20218;-71
2023/08/24 04:21:11;;;;;;;5.47;3.50;;;;;;;;;;5049816;28;20206;-71
2023/08/24 04:23:38;;;;;;;6.97;3.87;;;;;;;;;;5049687;28;20229;-70
2023/08/24 04:26:05;;;;;;;4.55;3.63;;;;;;;;;;5044718;28;20205;-70
2023/08/24 04:28:31;;;;;;;4.33;3.60;;;;;;;;;;5052046;28;20225;-70
2023/08/24 04:30:57;;;;;;;7.83;4.00;;;;;;;;;;5050234;28;20199;-70
2023/08/24 04:33:23;;;;;;;9.97;3.80;;;;;;;;;;5045857;28;20219;-71
2023/08/24 04:35:50;;;;;;;6.63;4.20;;;;;;;;;;5047171;28;20558;-70
2023/08/24 04:38:17;;;;;;;12.97;4.47;;;;;;;;;;5069826;28;20199;-70
2023/08/24 04:40:46;;;;;;;5.87;3.60;;;;;;;;;;5034646;28;20198;-71
2023/08/24 04:43:13;;;;;;;10.53;4.20;;;;;;;;;;5050258;28;20229;-70
2023/08/24 04:45:39;;;;;;;7.10;3.93;;;;;;;;;;5045843;28;20210;-71
2023/08/24 04:48:05;;;;;;;6.77;4.10;;;;;;;;;;5060148;28;20214;-71
2023/08/24 04:50:32;;;;;;;7.68;4.72;;;;;;;;;;5044373;28;20702;-71
2023/08/24 04:52:58;;;;;;;7.90;3.97;;;;;;;;;;5049232;28;20604;-70
2023/08/24 04:55:24;;;;;;;10.40;4.50;;;;;;;;;;5044059;28;20202;-70
2023/08/24 04:57:51;;;;;;;8.57;4.70;;;;;;;;;;5057697;28;20213;-71
2023/08/24 05:00:18;;;;;;;16.83;5.33;;;;;;;;;;5064399;28;20616;-71
2023/08/24 05:02:44;;;;;;;9.07;4.30;;;;;;;;;;5049442;28;20222;-70
2023/08/24 05:05:11;;;;;;;6.07;4.23;;;;;;;;;;5049594;28;20195;-70
2023/08/24 05:07:38;;;;;;;9.40;4.33;;;;;;;;;;5045896;28;20233;-70
2023/08/24 05:10:04;;;;;;;7.07;4.20;;;;;;;;;;5043473;28;20222;-70
2023/08/24 05:12:33;;;;;;;9.53;4.63;;;;;;;;;;5053911;28;20291;-70
2023/08/24 05:14:59;;;;;;;10.20;4.23;;;;;;;;;;5045555;28;20194;-69
2023/08/24 05:17:27;;;;;;;7.40;4.63;;;;;;;;;;5046912;28;20679;-71
2023/08/24 05:19:54;;;;;;;5.90;4.00;;;;;;;;;;5067867;28;20259;-70
2023/08/24 05:22:20;;;;;;;9.17;4.53;;;;;;;;;;5055053;28;20199;-70
2023/08/24 05:24:47;;;;;;;5.67;4.07;;;;;;;;;;5048821;28;20310;-71
2023/08/24 05:27:13;;;;;;;9.63;4.40;;;;;;;;;;5047270;28;20203;-71
2023/08/24 05:29:39;;;;;;;7.43;3.97;;;;;;;;;;5037148;28;20581;-69
2023/08/24 05:32:05;;;;;;;6.45;3.97;;;;;;;;;;5057592;28;20213;-71
2023/08/24 05:34:32;;;;;;;6.60;3.83;;;;;;;;;;5049060;28;20219;-71
2023/08/24 05:36:58;;;;;;;6.45;4.50;;;;;;;;;;5029188;28;20223;-71
2023/08/24 05:39:24;;;;;;;9.85;4.22;;;;;;;;;;5048163;28;20282;-70
2023/08/24 05:41:52;;;;;;;6.78;3.90;;;;;;;;;;5049314;28;20202;-71
2023/08/24 05:44:21;;;;;;;7.30;4.40;;;;;;;;;;5049685;28;20608;-70
2023/08/24 05:46:47;;;;;;;7.97;4.13;;;;;;;;;;5052791;28;20206;-70
2023/08/24 05:49:14;;;;;;;9.48;4.65;;;;;;;;;;5048791;28;20317;-70
2023/08/24 05:51:40;;;;;;;9.80;4.63;;;;;;;;;;5072436;28;20201;-69
2023/08/24 05:54:07;;;;;;;9.55;4.40;;;;;;;;;;5052261;28;20214;-70
2023/08/24 05:56:33;;;;;;;6.55;4.28;;;;;;;;;;5034663;28;20198;-71
2023/08/24 05:58:59;;;;;;;10.70;4.63;;;;;;;;;;5042899;28;20208;-71
2023/08/24 06:01:26;;;;;;;5.32;4.18;;;;;;;;;;5047077;28;20234;-71
2023/08/24 06:03:52;;;;;;;7.90;4.28;;;;;;;;;;5052246;28;20245;-70
2023/08/24 06:06:18;;;;;;;6.50;4.20;;;;;;;;;;5052546;28;20195;-70
2023/08/24 06:08:45;;;;;;;7.97;3.80;;;;;;;;;;5045816;28;20225;-70
2023/08/24 06:11:11;;;;;;;8.85;4.50;;;;;;;;;;5052933;28;20293;-70
2023/08/24 06:13:37;;;;;;;6.38;4.57;;;;;;;;;;5051995;28;20257;-70
2023/08/24 06:16:04;;;;;;;9.32;4.40;;;;;;;;;;5051039;28;20191;-70
2023/08/24 06:18:30;;;;;;;6.35;4.75;;;;;;;;;;5046084;28;20818;-70
2023/08/24 06:20:56;;;;;;;12.23;4.75;;;;;;;;;;5070575;28;20297;-70
2023/08/24 06:23:22;;;;;;;9.88;4.72;;;;;;;;;;5057805;28;20221;-71
2023/08/24 06:25:49;;;;;;;8.52;4.55;;;;;;;;;;5051580;28;20230;-70
2023/08/24 06:28:15;;;;;;;9.07;5.10;;;;;;;;;;5050971;28;20233;-70
2023/08/24 06:30:43;;;;;;;10.05;4.97;;;;;;;;;;5058270;28;20683;-69
2023/08/24 06:33:10;;;;;;;10.00;5.40;;;;;;;;;;5059495;28;20305;-70
2023/08/24 06:35:37;;;;;;;11.45;5.65;;;;;;;;;;5051635;28;20203;-70
2023/08/24 06:38:03;;;;;;;13.35;6.18;;;;;;;;;;5047800;28;20195;-69
2023/08/24 06:40:30;;;;;;;8.90;5.68;;;;;;;;;;5056554;28;20593;-70
2023/08/24 06:42:56;;;;;;;13.68;5.80;;;;;;;;;;5068739;28;20221;-70
2023/08/24 06:45:23;;;;;;;14.10;6.32;;;;;;;;;;5051489;28;20198;-70
2023/08/24 06:47:51;;;;;;;9.60;5.38;;;;;;;;;;5043662;28;20234;-70
2023/08/24 06:50:22;;;;;;;9.23;6.10;;;;;;;;;;5025992;28;20252;-71
2023/08/24 06:52:49;;;;;;;8.70;5.40;;;;;;;;;;5072098;28;20252;-70
2023/08/24 06:55:15;;;;;;;9.25;6.05;;;;;;;;;;5051583;28;20198;-71
2023/08/24 06:57:41;;;;;;;15.93;5.82;;;;;;;;;;5052577;28;20199;-71
2023/08/24 07:00:09;;;;;;;9.63;4.97;;;;;;;;;;5036282;28;20659;-72
2023/08/24 07:02:36;;;;;;;8.40;5.03;;;;;;;;;;5063642;28;20201;-70
2023/08/24 07:05:04;;;;;;;8.18;5.43;;;;;;;;;;5061098;28;20697;-71
2023/08/24 07:07:31;;;;;;;7.07;4.80;;;;;;;;;;5034489;28;20231;-71
2023/08/24 07:09:57;;;;;;;6.00;4.15;;;;;;;;;;5049372;28;20196;-71
2023/08/24 07:12:27;;;;;;;7.88;4.85;;;;;;;;;;5063644;28;20198;-71
2023/08/24 07:14:54;;;;;;;9.02;5.95;;;;;;;;;;5061643;28;20276;-71
2023/08/24 07:17:20;;;;;;;9.38;5.70;;;;;;;;;;5051848;28;20202;-71
2023/08/24 07:19:46;;;;;;;7.40;5.35;;;;;;;;;;5049201;28;20202;-71
2023/08/24 07:22:13;;;;;;;8.15;5.22;;;;;;;;;;5053432;28;20289;-72
2023/08/24 07:24:39;;;;;;;7.00;5.18;;;;;;;;;;5065540;28;20249;-72
2023/08/24 07:27:12;;;;;;;7.85;4.85;;;;;;;;;;5026971;28;20663;-72
2023/08/24 07:29:38;;;;;;;5.82;4.45;;;;;;;;;;5044465;28;20220;-72
2023/08/24 07:32:04;;;;;;;10.52;4.88;;;;;;;;;;5050998;28;20194;-72
2023/08/24 07:34:31;;;;;;;9.95;5.40;;;;;;;;;;5070301;28;20224;-72
2023/08/24 07:36:57;;;;;;;7.43;5.40;;;;;;;;;;5051861;28;20593;-71
2023/08/24 07:39:24;;;;;;;10.35;5.38;;;;;;;;;;5032966;28;20199;-72
2023/08/24 07:41:50;;;;;;;11.32;5.97;;;;;;;;;;5046812;28;20209;-72
2023/08/24 07:44:16;;;;;;;12.32;6.40;;;;;;;;;;5063863;28;20309;-71
2023/08/24 07:46:43;;;;;;;10.63;6.07;;;;;;;;;;5062758;28;20704;-70
2023/08/24 07:49:09;;;;;;;11.38;6.45;;;;;;;;;;5050124;28;20301;-68
2023/08/24 07:51:36;;;;;;;10.23;6.70;;;;;;;;;;5049253;28;20195;-71
2023/08/24 07:54:04;;;;;;;13.23;6.60;;;;;;;;;;5050254;28;20223;-69
2023/08/24 07:56:30;;;;;;;9.90;6.85;;;;;;;;;;5062385;28;20233;-71
2023/08/24 07:58:56;;;;;;;12.18;7.20;;;;;;;;;;5052024;28;20210;-71
2023/08/24 08:01:23;;;;;;;13.35;7.97;;;;;;;;;;5050442;28;20198;-71
2023/08/24 08:03:49;;;;;;;11.80;6.93;;;;;;;;;;5046253;28;20235;-69
2023/08/24 08:06:16;;;;;;;12.63;6.70;;;;;;;;;;5069677;28;20220;-70
2023/08/24 08:08:44;;;;;;;12.05;6.50;;;;;;;;;;5053347;28;20588;-70
2023/08/24 08:11:10;;;;;;;12.90;6.97;;;;;;;;;;5049946;28;20729;-70
2023/08/24 08:13:37;;;;;;;17.30;6.70;;;;;;;;;;5043049;28;20225;-70
2023/08/24 08:16:04;;;;;;;11.07;6.65;;;;;;;;;;5057297;28;20289;-70
2023/08/24 08:18:31;;;;;;;14.82;7.10;;;;;;;;;;5063497;28;20209;-70
2023/08/24 08:20:57;;;;;;;15.45;6.30;;;;;;;;;;5049611;28;20210;-71
2023/08/24 08:23:24;;;;;;;12.65;6.57;;;;;;;;;;5049385;28;20305;-69
2023/08/24 08:25:50;;;;;;;9.70;5.85;;;;;;;;;;5050686;28;20697;-70
2023/08/24 08:28:20;;;;;;;11.80;5.95;;;;;;;;;;5065379;28;20280;-71
2023/08/24 08:30:48;;;;;;;9.65;5.45;;;;;;;;;;5050215;28;20198;-70
2023/08/24 08:33:14;;;;;;;12.30;5.65;;;;;;;;;;5049692;28;20226;-71
2023/08/24 08:35:41;;;;;;;15.35;5.85;;;;;;;;;;5044365;28;20289;-70
2023/08/24 08:38:07;;;;;;;8.90;4.80;;;;;;;;;;5069420;28;20204;-71
2023/08/24 08:40:36;;;;;;;12.63;5.68;;;;;;;;;;5054952;28;20205;-71
2023/08/24 08:43:02;;;;;;;10.20;5.38;;;;;;;;;;5049263;28;20238;-70
2023/08/24 08:45:29;;;;;;;7.63;4.70;;;;;;;;;;5043751;28;20858;-71
2023/08/24 08:47:57;;;;;;;7.55;4.30;;;;;;;;;;5067066;28;20280;-71
2023/08/24 08:50:24;;;;;;;7.85;4.93;;;;;;;;;;5038189;28;20613;-71
2023/08/24 08:52:51;;;;;;;8.38;4.63;;;;;;;;;;5049221;28;20202;-71
2023/08/24 08:55:18;;;;;;;7.53;4.57;;;;;;;;;;5042552;28;20195;-71
2023/08/24 08:57:47;;;;;;;12.27;5.38;;;;;;;;;;5055661;28;20202;-71
2023/08/24 09:00:16;;;;;;;7.65;4.10;;;;;;;;;;5066060;28;20201;-71
2023/08/24 09:02:44;;;;;;;9.15;4.47;;;;;;;;;;5031720;28;20198;-71
2023/08/24 09:05:12;;;;;;;6.18;3.90;;;;;;;;;;5041198;28;20203;-70
2023/08/24 09:07:41;;;;;;;6.57;3.70;;;;;;;;;;5051837;28;20264;-71
2023/08/24 09:10:08;;;;;;;6.05;3.63;;;;;;;;;;5066090;28;20214;-71
2023/08/24 09:12:34;;;;;;;7.78;3.70;;;;;;;;;;5048879;28;20198;-71
2023/08/24 09:15:06;;;;;;;7.57;4.22;;;;;;;;;;5043252;28;20214;-71
2023/08/24 09:17:33;;;;;;;5.50;3.38;;;;;;;;;;5053320;28;20194;-71
2023/08/24 09:20:00;;;;;;;12.45;3.97;;;;;;;;;;5069236;28;20205;-71
2023/08/24 09:22:26;;;;;;;9.98;3.50;;;;;;;;;;5052758;28;20234;-71
2023/08/24 09:24:54;;;;;;;8.48;3.35;;;;;;;;;;5052457;28;20218;-71
2023/08/24 09:27:21;;;;;;;6.95;3.17;;;;;;;;;;5046963;28;20195;-71
2023/08/24 09:29:51;;;;;;;7.15;3.72;;;;;;;;;;5069389;28;20225;-70
2023/08/24 09:32:24;;;;;;;6.10;3.30;;;;;;;;;;5060303;28;20262;-71
2023/08/24 09:34:50;;;;;;;6.53;3.30;;;;;;;;;;5033800;28;20269;-71
2023/08/24 09:37:16;;;;;;;6.07;3.53;;;;;;;;;;5072299;28;20374;-72
2023/08/24 09:39:43;;;;;;;6.38;3.35;;;;;;;;;;5056596;28;20205;-71
2023/08/24 09:42:10;;;;;;;5.45;3.35;;;;;;;;;;5049488;28;20227;-71
2023/08/24 09:44:36;;;;;;;6.03;3.00;;;;;;;;;;5047034;28;20603;-71
2023/08/24 09:47:08;;;;;;;10.25;3.88;;;;;;;;;;5043433;28;20206;-71
2023/08/24 09:49:35;;;;;;;7.43;3.28;;;;;;;;;;5057840;28;20237;-71
2023/08/24 09:52:02;;;;;;;5.45;3.10;;;;;;;;;;5033452;28;20209;-70
2023/08/24 09:54:31;;;;;;;9.02;3.05;;;;;;;;;;5066158;28;20708;-71
2023/08/24 09:56:58;;;;;;;8.20;3.35;;;;;;;;;;5054446;28;20488;-71
2023/08/24 09:59:27;;;;;;;5.55;3.60;;;;;;;;;;5052828;28;20227;-71
2023/08/24 10:01:56;;;;;;;8.55;3.33;;;;;;;;;;5043481;28;20682;-71
2023/08/24 10:04:24;;;;;;;5.53;3.30;;;;;;;;;;5071678;28;20233;-71
2023/08/24 10:07:01;;;;;;;4.68;3.30;;;;;;;;;;5055054;28;20589;-71
2023/08/24 10:09:31;;;;;;;5.18;3.15;;;;;;;;;;5052454;28;20238;-71
2023/08/24 10:12:00;;;;;;;4.07;2.78;;;;;;;;;;5049506;28;20203;-71
2023/08/24 10:14:26;;;;;;;6.25;3.00;;;;;;;;;;5046562;28;20229;-70
2023/08/24 10:16:53;;;;;;;4.47;3.17;;;;;;;;;;5062715;28;20199;-70
2023/08/24 10:19:20;;;;;;;4.53;3.28;;;;;;;;;;5051947;28;20210;-70
2023/08/24 10:21:47;;;;;;;4.50;3.13;;;;;;;;;;5049142;28;20303;-70
2023/08/24 10:24:14;;;;;;;5.10;3.33;;;;;;;;;;5061371;28;20229;-71
2023/08/24 10:26:41;;;;;;;3.75;2.83;;;;;;;;;;5064634;28;20209;-70
2023/08/24 10:29:07;;;;;;;4.50;3.05;;;;;;;;;;5051825;28;20322;-71
2023/08/24 10:31:34;;;;;;;4.30;3.20;;;;;;;;;;5045636;28;20207;-71
2023/08/24 10:34:01;;;;;;;8.75;4.40;;;;;;;;;;5048853;28;20219;-70
2023/08/24 10:36:28;;;;;;;4.68;3.15;;;;;;;;;;5071774;28;20280;-71
2023/08/24 10:38:55;;;;;;;7.65;3.38;;;;;;;;;;5054384;28;20199;-71
2023/08/24 10:41:25;;;;;;;4.93;3.15;;;;;;;;;;5051803;28;20206;-71
2023/08/24 10:43:51;;;;;;;4.75;3.20;;;;;;;;;;5046901;28;20219;-71
2023/08/24 10:46:18;;;;;;;5.07;3.10;;;;;;;;;;5071238;28;20202;-71
2023/08/24 10:48:47;;;;;;;5.78;3.00;;;;;;;;;;5055052;28;20280;-71
2023/08/24 10:51:13;;;;;;;5.15;3.22;;;;;;;;;;5051564;28;20195;-71
2023/08/24 10:53:39;;;;;;;5.35;3.22;;;;;;;;;;5046543;28;20219;-70
2023/08/24 10:56:16;;;;;;;3.97;3.00;;;;;;;;;;5058168;28;20202;-71
2023/08/24 10:58:46;;;;;;;8.52;3.63;;;;;;;;;;5071345;28;20198;-71
2023/08/24 11:01:17;;;;;;;7.68;3.30;;;;;;;;;;5051170;28;20687;-71
2023/08/24 11:04:10;;;;;;;8.55;5.20;;;;;;;;;;5044313;28;20281;-71
2023/08/24 11:06:57;;;;;;;5.65;3.30;;;;;;;;;;5060166;28;20194;-71
2023/08/24 11:09:23;;;;;;;7.50;3.13;;;;;;;;;;5058485;28;20642;-71
2023/08/24 11:11:57;;;;;;;7.30;3.40;;;;;;;;;;5051213;28;20198;-69
2023/08/24 11:14:26;;;;;;;9.15;3.40;;;;;;;;;;5046075;28;20226;-71
2023/08/24 11:16:54;;;;;;;8.98;3.92;;;;;;;;;;5056967;28;20202;-71
2023/08/24 11:19:20;;;;;;;5.78;3.22;;;;;;;;;;5066700;28;20218;-71
2023/08/24 11:21:46;;;;;;;5.85;3.20;;;;;;;;;;5050898;28;20202;-71
2023/08/24 11:24:13;;;;;;;6.75;3.08;;;;;;;;;;5049527;28;20215;-71
2023/08/24 11:26:44;;;;;;;8.07;3.28;;;;;;;;;;5038133;28;20309;-71
2023/08/24 11:29:10;;;;;;;5.18;3.33;;;;;;;;;;5067578;28;20710;-71
2023/08/24 11:31:37;;;;;;;5.55;3.30;;;;;;;;;;5050613;28;20201;-71
2023/08/24 11:34:08;;;;;;;6.30;3.90;;;;;;;;;;5043420;28;20215;-70
2023/08/24 11:36:46;;;;;;;5.68;3.40;;;;;;;;;;5050005;28;20461;-71
2023/08/24 11:39:17;;;;;;;7.80;3.70;;;;;;;;;;5072007;28;20576;-71
2023/08/24 11:41:44;;;;;;;5.70;3.30;;;;;;;;;;5057118;28;20199;-71
2023/08/24 11:44:11;;;;;;;4.25;3.20;;;;;;;;;;5036126;28;20226;-71
2023/08/24 11:46:55;;;;;;;4.75;3.40;;;;;;;;;;5047595;28;20218;-71
2023/08/24 11:49:22;;;;;;;5.57;3.85;;;;;;;;;;5070109;28;20214;-72
2023/08/24 11:51:49;;;;;;;5.25;3.85;;;;;;;;;;5054467;28;20375;-71
2023/08/24 11:54:19;;;;;;;4.63;3.35;;;;;;;;;;5050155;28;20766;-72
2023/08/24 11:56:46;;;;;;;7.13;3.28;;;;;;;;;;5044328;28;20321;-71
2023/08/24 11:59:14;;;;;;;8.13;3.97;;;;;;;;;;5059724;28;20247;-71
2023/08/24 12:01:41;;;;;;;5.95;3.30;;;;;;;;;;5063228;28;20283;-71
2023/08/24 12:04:07;;;;;;;5.80;3.50;;;;;;;;;;5049882;28;20226;-72
2023/08/24 12:06:34;;;;;;;7.05;3.53;;;;;;;;;;5049204;28;20666;-71
2023/08/24 12:09:00;;;;;;;5.95;3.80;;;;;;;;;;5055132;28;20221;-71
2023/08/24 12:11:27;;;;;;;7.05;3.65;;;;;;;;;;5056753;28;20191;-72
2023/08/24 12:13:54;;;;;;;8.77;3.38;;;;;;;;;;5049510;28;20222;-71
2023/08/24 12:16:23;;;;;;;6.55;3.95;;;;;;;;;;5047756;28;20195;-71
2023/08/24 12:18:51;;;;;;;9.55;3.80;;;;;;;;;;5055734;28;20197;-71
2023/08/24 12:21:19;;;;;;;9.13;3.95;;;;;;;;;;5066588;28;20199;-71
2023/08/24 12:23:55;;;;;;;8.35;3.83;;;;;;;;;;5049560;28;20214;-71
2023/08/24 12:26:21;;;;;;;10.57;3.60;;;;;;;;;;5041946;28;20231;-70
2023/08/24 12:28:52;;;;;;;7.80;3.80;;;;;;;;;;5039422;28;20286;-71
2023/08/24 12:31:18;;;;;;;8.10;3.95;;;;;;;;;;5053462;28;20214;-71
2023/08/24 12:33:45;;;;;;;9.95;3.60;;;;;;;;;;5054094;28;20301;-71
2023/08/24 12:36:11;;;;;;;10.30;4.38;;;;;;;;;;5049396;28;20290;-71
2023/08/24 12:38:39;;;;;;;7.57;3.95;;;;;;;;;;5044135;28;20649;-69
2023/08/24 12:41:06;;;;;;;9.77;3.58;;;;;;;;;;5047284;28;20203;-71
2023/08/24 12:43:32;;;;;;;7.65;3.75;;;;;;;;;;5048907;28;20230;-71
2023/08/24 12:45:58;;;;;;;6.10;3.80;;;;;;;;;;5049108;28;20289;-71
2023/08/24 12:48:25;;;;;;;6.32;3.90;;;;;;;;;;5047581;28;20198;-71
2023/08/24 12:50:51;;;;;;;8.48;4.63;;;;;;;;;;5051993;28;20229;-71
2023/08/24 12:53:17;;;;;;;6.93;3.95;;;;;;;;;;5065425;28;20218;-71
2023/08/24 12:55:44;;;;;;;5.07;3.47;;;;;;;;;;5052827;28;20281;-71
2023/08/24 12:58:10;;;;;;;7.20;4.20;;;;;;;;;;5033455;28;20625;-71
2023/08/24 13:00:36;;;;;;;6.13;3.60;;;;;;;;;;5057222;28;20364;-71
2023/08/24 13:03:03;;;;;;;6.50;3.90;;;;;;;;;;5071660;28;20225;-71
2023/08/24 13:05:30;;;;;;;4.00;3.40;;;;;;;;;;5058538;28;20236;-71
2023/08/24 13:07:58;;;;;;;6.85;3.88;;;;;;;;;;5051525;28;20207;-71
2023/08/24 13:10:25;;;;;;;7.38;4.15;;;;;;;;;;5051571;28;20660;-71
2023/08/24 13:12:51;;;;;;;6.53;4.00;;;;;;;;;;5069083;28;20198;-71
2023/08/24 13:15:17;;;;;;;5.20;3.97;;;;;;;;;;5043482;28;20863;-71
2023/08/24 13:17:43;;;;;;;6.78;4.22;;;;;;;;;;5052909;28;20663;-71
2023/08/24 13:20:10;;;;;;;7.40;3.75;;;;;;;;;;5044448;28;20202;-71
2023/08/24 13:22:36;;;;;;;10.10;4.30;;;;;;;;;;5065103;28;20221;-71
2023/08/24 13:25:03;;;;;;;6.28;4.22;;;;;;;;;;5063294;28;20203;-72
2023/08/24 13:27:29;;;;;;;6.97;3.95;;;;;;;;;;5053584;28;20196;-70
2023/08/24 13:29:58;;;;;;;6.10;4.03;;;;;;;;;;5052962;28;20218;-71
2023/08/24 13:32:24;;;;;;;5.55;3.88;;;;;;;;;;5050436;28;20199;-71
2023/08/24 13:34:50;;;;;;;5.20;4.00;;;;;;;;;;5053812;28;20261;-71
2023/08/24 13:37:17;;;;;;;6.32;3.60;;;;;;;;;;5052697;28;20578;-71
2023/08/24 13:39:43;;;;;;;6.25;3.90;;;;;;;;;;5052982;28;20281;-71
2023/08/24 13:42:10;;;;;;;6.18;4.15;;;;;;;;;;5034709;28;20211;-71
2023/08/24 13:44:36;;;;;;;8.13;4.88;;;;;;;;;;5054648;28;20214;-72
2023/08/24 13:47:02;;;;;;;5.63;4.28;;;;;;;;;;5055061;28;20285;-72
2023/08/24 13:49:29;;;;;;;5.10;4.00;;;;;;;;;;5049849;28;20616;-71
2023/08/24 13:52:02;;;;;;;5.47;3.80;;;;;;;;;;5049350;28;20206;-70
2023/08/24 13:54:30;;;;;;;6.40;4.22;;;;;;;;;;5072176;28;20210;-70
2023/08/24 13:56:56;;;;;;;4.80;4.30;;;;;;;;;;5055674;28;20207;-70
2023/08/24 13:59:22;;;;;;;7.38;4.10;;;;;;;;;;5052558;28;20205;-70
2023/08/24 14:01:49;;;;;;;6.25;4.05;;;;;;;;;;5047993;28;20200;-71
2023/08/24 14:04:15;;;;;;;6.47;4.22;;;;;;;;;;5059846;28;20741;-71
2023/08/24 14:06:41;;;;;;;8.80;3.83;;;;;;;;;;5065447;28;20210;-71
2023/08/24 14:09:08;;;;;;;7.10;4.15;;;;;;;;;;5052294;28;20209;-71
2023/08/24 14:11:34;;;;;;;9.02;4.07;;;;;;;;;;5044172;28;20698;-71
2023/08/24 14:14:01;;;;;;;6.50;4.18;;;;;;;;;;5058907;28;20309;-71
2023/08/24 14:16:27;;;;;;;6.55;4.72;;;;;;;;;;5067521;28;20200;-71
2023/08/24 14:18:53;;;;;;;13.68;7.90;;;;;;;;;;5052201;28;20207;-72
2023/08/24 14:21:20;;;;;;;10.05;6.30;;;;;;;;;;5033949;28;20199;-72
2023/08/24 14:24:02;;;;;;;15.20;5.65;;;;;;;;;;5042971;28;20317;-72
2023/08/24 14:26:29;;;;;;;10.90;4.47;;;;;;;;;;5071765;28;20198;-72
2023/08/24 14:28:59;;;;;;;11.13;4.63;;;;;;;;;;5055677;28;20203;-72
2023/08/24 14:31:27;;;;;;;12.65;4.65;;;;;;;;;;5048382;28;20226;-72
2023/08/24 14:33:53;;;;;;;8.85;3.95;;;;;;;;;;5045187;28;20583;-72
2023/08/24 14:36:20;;;;;;;7.03;4.47;;;;;;;;;;5071420;28;20307;-72
2023/08/24 14:38:47;;;;;;;7.40;4.30;;;;;;;;;;5056750;28;20199;-72
2023/08/24 14:41:13;;;;;;;7.63;4.45;;;;;;;;;;5051433;28;20294;-72